sensor_id;sensor_type;location;lat;lon;timestamp;temperature;humidity
43561;DHT22;32305;46.410;17.394;2023-01-16T00:01:22;21.00;36.50
43561;DHT22;32305;46.410;17.394;2023-01-16T00:03:50;20.90;36.50
43561;DHT22;32305;46.410;17.394;2023-01-16T00:06:17;21.00;36.60
43561;DHT22;32305;46.410;17.394;2023-01-16T00:08:44;20.90;36.50
43561;DHT22;32305;46.410;17.394;2023-01-16T00:11:11;20.90;36.50
43561;DHT22;32305;46.410;17.394;2023-01-16T00:13:38;21.00;36.60
43561;DHT22;32305;46.410;17.394;2023-01-16T00:16:06;20.90;36.60
43561;DHT22;32305;46.410;17.394;2023-01-16T00:18:33;20.90;36.60
43561;DHT22;32305;46.410;17.394;2023-01-16T00:21:00;20.90;36.60
43561;DHT22;32305;46.410;17.394;2023-01-16T00:23:27;20.90;36.60
43561;DHT22;32305;46.410;17.394;2023-01-16T00:25:54;20.90;36.60
43561;DHT22;32305;46.410;17.394;2023-01-16T00:28:21;20.90;36.60
43561;DHT22;32305;46.410;17.394;2023-01-16T00:30:48;20.90;36.60
43561;DHT22;32305;46.410;17.394;2023-01-16T00:33:15;20.90;37.20
43561;DHT22;32305;46.410;17.394;2023-01-16T00:35:42;20.90;36.70
43561;DHT22;32305;46.410;17.394;2023-01-16T00:38:09;20.90;36.70
43561;DHT22;32305;46.410;17.394;2023-01-16T00:40:36;20.90;36.70
43561;DHT22;32305;46.410;17.394;2023-01-16T00:43:03;20.90;36.70
43561;DHT22;32305;46.410;17.394;2023-01-16T00:45:30;20.90;36.70
43561;DHT22;32305;46.410;17.394;2023-01-16T00:47:57;20.90;36.70
43561;DHT22;32305;46.410;17.394;2023-01-16T00:50:25;20.90;36.70
43561;DHT22;32305;46.410;17.394;2023-01-16T00:52:52;20.90;36.70
43561;DHT22;32305;46.410;17.394;2023-01-16T00:55:19;20.90;36.70
43561;DHT22;32305;46.410;17.394;2023-01-16T00:57:46;20.90;36.70
43561;DHT22;32305;46.410;17.394;2023-01-16T01:00:13;20.90;36.70
43561;DHT22;32305;46.410;17.394;2023-01-16T01:02:40;20.90;36.80
43561;DHT22;32305;46.410;17.394;2023-01-16T01:05:07;20.90;36.80
43561;DHT22;32305;46.410;17.394;2023-01-16T01:07:34;20.90;36.80
43561;DHT22;32305;46.410;17.394;2023-01-16T01:10:01;20.90;36.80
43561;DHT22;32305;46.410;17.394;2023-01-16T01:12:27;20.90;36.80
43561;DHT22;32305;46.410;17.394;2023-01-16T01:14:54;20.90;36.80
43561;DHT22;32305;46.410;17.394;2023-01-16T01:17:21;20.90;36.80
43561;DHT22;32305;46.410;17.394;2023-01-16T01:19:48;20.90;36.80
43561;DHT22;32305;46.410;17.394;2023-01-16T01:22:15;20.90;36.80
43561;DHT22;32305;46.410;17.394;2023-01-16T01:24:42;20.90;36.80
43561;DHT22;32305;46.410;17.394;2023-01-16T01:27:10;20.90;36.80
43561;DHT22;32305;46.410;17.394;2023-01-16T01:29:37;20.90;36.80
43561;DHT22;32305;46.410;17.394;2023-01-16T01:32:04;20.90;36.80
43561;DHT22;32305;46.410;17.394;2023-01-16T01:34:32;20.90;36.80
43561;DHT22;32305;46.410;17.394;2023-01-16T01:37:01;20.90;36.90
43561;DHT22;32305;46.410;17.394;2023-01-16T01:39:29;20.90;36.90
43561;DHT22;32305;46.410;17.394;2023-01-16T01:41:56;20.90;36.90
43561;DHT22;32305;46.410;17.394;2023-01-16T01:44:51;20.90;36.90
43561;DHT22;32305;46.410;17.394;2023-01-16T01:47:20;20.90;36.90
43561;DHT22;32305;46.410;17.394;2023-01-16T01:49:49;20.90;36.90
43561;DHT22;32305;46.410;17.394;2023-01-16T01:52:17;20.80;36.90
43561;DHT22;32305;46.410;17.394;2023-01-16T01:54:45;20.90;36.90
43561;DHT22;32305;46.410;17.394;2023-01-16T01:57:17;20.80;36.90
43561;DHT22;32305;46.410;17.394;2023-01-16T01:59:46;20.90;37.00
43561;DHT22;32305;46.410;17.394;2023-01-16T02:02:15;20.80;36.90
43561;DHT22;32305;46.410;17.394;2023-01-16T02:04:45;20.90;37.50
43561;DHT22;32305;46.410;17.394;2023-01-16T02:07:14;20.80;36.90
43561;DHT22;32305;46.410;17.394;2023-01-16T02:09:42;20.90;37.00
43561;DHT22;32305;46.410;17.394;2023-01-16T02:12:10;20.90;37.00
43561;DHT22;32305;46.410;17.394;2023-01-16T02:14:39;20.80;37.00
43561;DHT22;32305;46.410;17.394;2023-01-16T02:17:11;20.80;37.00
43561;DHT22;32305;46.410;17.394;2023-01-16T02:28:32;20.80;37.00
43561;DHT22;32305;46.410;17.394;2023-01-16T02:31:21;20.80;37.00
43561;DHT22;32305;46.410;17.394;2023-01-16T02:39:32;20.80;37.00
43561;DHT22;32305;46.410;17.394;2023-01-16T02:42:10;20.80;37.10
43561;DHT22;32305;46.410;17.394;2023-01-16T02:44:50;20.80;37.10
43561;DHT22;32305;46.410;17.394;2023-01-16T02:47:23;20.80;37.10
43561;DHT22;32305;46.410;17.394;2023-01-16T02:52:57;20.80;37.10
43561;DHT22;32305;46.410;17.394;2023-01-16T02:55:28;20.80;37.10
43561;DHT22;32305;46.410;17.394;2023-01-16T02:57:59;20.80;37.10
43561;DHT22;32305;46.410;17.394;2023-01-16T03:00:27;20.80;37.30
43561;DHT22;32305;46.410;17.394;2023-01-16T03:02:55;20.80;37.10
43561;DHT22;32305;46.410;17.394;2023-01-16T03:05:22;20.80;37.10
43561;DHT22;32305;46.410;17.394;2023-01-16T03:10:46;20.80;37.10
43561;DHT22;32305;46.410;17.394;2023-01-16T03:16:12;20.80;37.10
43561;DHT22;32305;46.410;17.394;2023-01-16T03:18:49;20.80;37.20
43561;DHT22;32305;46.410;17.394;2023-01-16T03:21:27;20.80;37.10
43561;DHT22;32305;46.410;17.394;2023-01-16T03:24:03;20.80;37.20
43561;DHT22;32305;46.410;17.394;2023-01-16T03:26:45;20.80;37.20
43561;DHT22;32305;46.410;17.394;2023-01-16T03:32:04;20.80;37.10
43561;DHT22;32305;46.410;17.394;2023-01-16T03:34:40;20.80;37.10
43561;DHT22;32305;46.410;17.394;2023-01-16T03:37:10;20.80;37.10
43561;DHT22;32305;46.410;17.394;2023-01-16T03:39:42;20.80;37.20
43561;DHT22;32305;46.410;17.394;2023-01-16T03:42:15;20.80;37.20
43561;DHT22;32305;46.410;17.394;2023-01-16T03:44:46;20.80;37.20
43561;DHT22;32305;46.410;17.394;2023-01-16T03:47:18;20.80;37.20
43561;DHT22;32305;46.410;17.394;2023-01-16T03:49:48;20.80;37.20
43561;DHT22;32305;46.410;17.394;2023-01-16T03:52:17;20.80;37.20
43561;DHT22;32305;46.410;17.394;2023-01-16T03:54:51;20.80;37.20
43561;DHT22;32305;46.410;17.394;2023-01-16T03:57:24;20.80;37.30
43561;DHT22;32305;46.410;17.394;2023-01-16T03:59:52;20.80;37.20
43561;DHT22;32305;46.410;17.394;2023-01-16T04:02:20;20.80;37.30
43561;DHT22;32305;46.410;17.394;2023-01-16T04:04:51;20.80;37.20
43561;DHT22;32305;46.410;17.394;2023-01-16T04:07:20;20.80;37.20
43561;DHT22;32305;46.410;17.394;2023-01-16T04:09:53;20.80;37.30
43561;DHT22;32305;46.410;17.394;2023-01-16T04:12:23;20.80;37.30
43561;DHT22;32305;46.410;17.394;2023-01-16T04:14:53;20.80;37.30
43561;DHT22;32305;46.410;17.394;2023-01-16T04:17:21;20.70;37.20
43561;DHT22;32305;46.410;17.394;2023-01-16T04:19:49;20.80;37.30
43561;DHT22;32305;46.410;17.394;2023-01-16T04:22:20;20.70;37.20
43561;DHT22;32305;46.410;17.394;2023-01-16T04:24:47;20.70;37.30
43561;DHT22;32305;46.410;17.394;2023-01-16T04:27:15;20.70;37.20
43561;DHT22;32305;46.410;17.394;2023-01-16T04:29:42;20.70;37.30
43561;DHT22;32305;46.410;17.394;2023-01-16T04:32:09;20.80;37.30
43561;DHT22;32305;46.410;17.394;2023-01-16T04:34:36;20.70;37.30
43561;DHT22;32305;46.410;17.394;2023-01-16T04:37:03;20.70;37.30
43561;DHT22;32305;46.410;17.394;2023-01-16T04:39:30;20.70;37.30
43561;DHT22;32305;46.410;17.394;2023-01-16T04:41:57;20.80;37.30
43561;DHT22;32305;46.410;17.394;2023-01-16T04:44:24;20.80;37.40
43561;DHT22;32305;46.410;17.394;2023-01-16T04:46:51;20.80;37.40
43561;DHT22;32305;46.410;17.394;2023-01-16T04:49:20;20.80;37.40
43561;DHT22;32305;46.410;17.394;2023-01-16T04:51:47;20.70;37.30
43561;DHT22;32305;46.410;17.394;2023-01-16T04:54:15;20.70;37.30
43561;DHT22;32305;46.410;17.394;2023-01-16T04:56:42;20.70;37.40
43561;DHT22;32305;46.410;17.394;2023-01-16T04:59:09;20.70;37.30
43561;DHT22;32305;46.410;17.394;2023-01-16T05:01:36;20.70;37.30
43561;DHT22;32305;46.410;17.394;2023-01-16T05:04:04;20.80;37.40
43561;DHT22;32305;46.410;17.394;2023-01-16T05:06:32;20.70;37.40
43561;DHT22;32305;46.410;17.394;2023-01-16T05:08:59;20.70;37.40
43561;DHT22;32305;46.410;17.394;2023-01-16T05:11:26;20.80;37.40
43561;DHT22;32305;46.410;17.394;2023-01-16T05:13:53;20.70;37.40
43561;DHT22;32305;46.410;17.394;2023-01-16T05:16:20;20.70;37.40
43561;DHT22;32305;46.410;17.394;2023-01-16T05:18:47;20.70;37.40
43561;DHT22;32305;46.410;17.394;2023-01-16T05:21:14;20.70;37.40
43561;DHT22;32305;46.410;17.394;2023-01-16T05:23:41;20.70;37.40
43561;DHT22;32305;46.410;17.394;2023-01-16T05:26:08;20.70;37.40
43561;DHT22;32305;46.410;17.394;2023-01-16T05:28:35;20.70;37.40
43561;DHT22;32305;46.410;17.394;2023-01-16T05:31:02;20.80;37.40
43561;DHT22;32305;46.410;17.394;2023-01-16T05:33:29;20.70;37.40
43561;DHT22;32305;46.410;17.394;2023-01-16T05:35:56;20.80;37.50
43561;DHT22;32305;46.410;17.394;2023-01-16T05:38:24;20.80;37.30
43561;DHT22;32305;46.410;17.394;2023-01-16T05:40:51;20.70;37.10
43561;DHT22;32305;46.410;17.394;2023-01-16T05:43:18;20.70;37.00
43561;DHT22;32305;46.410;17.394;2023-01-16T05:45:45;20.70;36.90
43561;DHT22;32305;46.410;17.394;2023-01-16T05:48:11;20.70;36.90
43561;DHT22;32305;46.410;17.394;2023-01-16T05:50:38;20.70;36.80
43561;DHT22;32305;46.410;17.394;2023-01-16T05:53:06;20.70;36.70
43561;DHT22;32305;46.410;17.394;2023-01-16T05:55:38;20.70;36.70
43561;DHT22;32305;46.410;17.394;2023-01-16T05:58:06;20.70;36.70
43561;DHT22;32305;46.410;17.394;2023-01-16T06:00:33;20.70;36.60
43561;DHT22;32305;46.410;17.394;2023-01-16T06:02:59;20.70;36.60
43561;DHT22;32305;46.410;17.394;2023-01-16T06:05:26;20.70;36.50
43561;DHT22;32305;46.410;17.394;2023-01-16T06:07:54;20.70;36.50
43561;DHT22;32305;46.410;17.394;2023-01-16T06:10:22;20.70;36.40
43561;DHT22;32305;46.410;17.394;2023-01-16T06:12:49;20.70;36.40
43561;DHT22;32305;46.410;17.394;2023-01-16T06:15:16;20.70;36.40
43561;DHT22;32305;46.410;17.394;2023-01-16T06:17:43;20.70;36.30
43561;DHT22;32305;46.410;17.394;2023-01-16T06:20:10;20.70;36.30
43561;DHT22;32305;46.410;17.394;2023-01-16T06:22:37;20.70;36.30
43561;DHT22;32305;46.410;17.394;2023-01-16T06:25:05;20.80;36.40
43561;DHT22;32305;46.410;17.394;2023-01-16T06:27:32;20.80;36.40
43561;DHT22;32305;46.410;17.394;2023-01-16T06:29:59;20.80;36.40
43561;DHT22;32305;46.410;17.394;2023-01-16T06:32:26;20.80;36.40
43561;DHT22;32305;46.410;17.394;2023-01-16T06:34:53;20.90;36.40
43561;DHT22;32305;46.410;17.394;2023-01-16T06:37:20;20.90;36.40
43561;DHT22;32305;46.410;17.394;2023-01-16T06:39:48;20.90;36.40
43561;DHT22;32305;46.410;17.394;2023-01-16T06:42:15;20.90;37.00
43561;DHT22;32305;46.410;17.394;2023-01-16T06:44:42;21.00;37.70
43561;DHT22;32305;46.410;17.394;2023-01-16T06:47:09;21.00;37.90
43561;DHT22;32305;46.410;17.394;2023-01-16T06:49:36;21.00;38.50
43561;DHT22;32305;46.410;17.394;2023-01-16T06:52:03;21.10;38.90
43561;DHT22;32305;46.410;17.394;2023-01-16T06:54:30;21.10;39.10
43561;DHT22;32305;46.410;17.394;2023-01-16T06:56:57;21.10;39.50
43561;DHT22;32305;46.410;17.394;2023-01-16T06:59:24;21.10;40.10
43561;DHT22;32305;46.410;17.394;2023-01-16T07:01:51;21.10;39.20
43561;DHT22;32305;46.410;17.394;2023-01-16T07:04:18;21.10;39.40
43561;DHT22;32305;46.410;17.394;2023-01-16T07:06:45;21.10;39.50
43561;DHT22;32305;46.410;17.394;2023-01-16T07:09:13;21.20;39.90
43561;DHT22;32305;46.410;17.394;2023-01-16T07:11:40;21.20;39.50
43561;DHT22;32305;46.410;17.394;2023-01-16T07:14:07;21.20;39.50
43561;DHT22;32305;46.410;17.394;2023-01-16T07:16:54;21.30;39.20
43561;DHT22;32305;46.410;17.394;2023-01-16T07:19:41;21.30;38.90
43561;DHT22;32305;46.410;17.394;2023-01-16T07:22:28;21.30;39.20
43561;DHT22;32305;46.410;17.394;2023-01-16T07:25:02;21.40;39.00
43561;DHT22;32305;46.410;17.394;2023-01-16T07:27:29;21.40;39.40
43561;DHT22;32305;46.410;17.394;2023-01-16T07:29:58;21.40;39.50
43561;DHT22;32305;46.410;17.394;2023-01-16T07:32:25;21.50;39.00
43561;DHT22;32305;46.410;17.394;2023-01-16T07:34:52;21.50;38.90
43561;DHT22;32305;46.410;17.394;2023-01-16T07:37:19;21.50;38.80
43561;DHT22;32305;46.410;17.394;2023-01-16T07:39:46;21.60;38.50
43561;DHT22;32305;46.410;17.394;2023-01-16T07:42:13;21.60;38.80
43561;DHT22;32305;46.410;17.394;2023-01-16T07:44:40;21.60;38.80
43561;DHT22;32305;46.410;17.394;2023-01-16T07:47:07;21.60;38.80
43561;DHT22;32305;46.410;17.394;2023-01-16T07:49:34;21.70;38.70
43561;DHT22;32305;46.410;17.394;2023-01-16T07:52:01;21.70;38.80
43561;DHT22;32305;46.410;17.394;2023-01-16T07:54:28;21.70;38.70
43561;DHT22;32305;46.410;17.394;2023-01-16T07:56:55;21.80;39.50
43561;DHT22;32305;46.410;17.394;2023-01-16T07:59:22;21.80;39.90
43561;DHT22;32305;46.410;17.394;2023-01-16T08:01:49;21.80;39.80
43561;DHT22;32305;46.410;17.394;2023-01-16T08:04:17;21.80;39.30
43561;DHT22;32305;46.410;17.394;2023-01-16T08:06:44;21.80;39.30
43561;DHT22;32305;46.410;17.394;2023-01-16T08:09:11;21.90;39.30
43561;DHT22;32305;46.410;17.394;2023-01-16T08:11:38;21.80;39.50
43561;DHT22;32305;46.410;17.394;2023-01-16T08:14:06;21.80;39.70
43561;DHT22;32305;46.410;17.394;2023-01-16T08:16:34;21.90;39.80
43561;DHT22;32305;46.410;17.394;2023-01-16T08:19:01;21.90;40.10
43561;DHT22;32305;46.410;17.394;2023-01-16T08:21:28;21.90;39.60
43561;DHT22;32305;46.410;17.394;2023-01-16T08:23:55;21.90;39.10
43561;DHT22;32305;46.410;17.394;2023-01-16T08:26:23;21.90;38.90
43561;DHT22;32305;46.410;17.394;2023-01-16T08:28:50;21.90;38.80
43561;DHT22;32305;46.410;17.394;2023-01-16T08:31:18;21.90;38.70
43561;DHT22;32305;46.410;17.394;2023-01-16T08:33:45;22.00;38.90
43561;DHT22;32305;46.410;17.394;2023-01-16T08:36:15;22.00;39.40
43561;DHT22;32305;46.410;17.394;2023-01-16T08:38:43;22.00;39.40
43561;DHT22;32305;46.410;17.394;2023-01-16T08:41:10;22.00;39.90
43561;DHT22;32305;46.410;17.394;2023-01-16T08:43:57;22.10;40.00
43561;DHT22;32305;46.410;17.394;2023-01-16T08:46:45;22.10;39.90
43561;DHT22;32305;46.410;17.394;2023-01-16T08:49:36;22.10;40.40
43561;DHT22;32305;46.410;17.394;2023-01-16T08:52:23;22.10;39.90
43561;DHT22;32305;46.410;17.394;2023-01-16T08:54:53;22.10;40.00
43561;DHT22;32305;46.410;17.394;2023-01-16T08:57:20;22.10;40.10
43561;DHT22;32305;46.410;17.394;2023-01-16T08:59:48;22.10;39.90
43561;DHT22;32305;46.410;17.394;2023-01-16T09:02:15;22.10;39.70
43561;DHT22;32305;46.410;17.394;2023-01-16T09:04:42;22.10;39.60
43561;DHT22;32305;46.410;17.394;2023-01-16T09:07:10;22.10;39.50
43561;DHT22;32305;46.410;17.394;2023-01-16T09:09:37;22.10;39.30
43561;DHT22;32305;46.410;17.394;2023-01-16T09:12:10;22.10;39.80
43561;DHT22;32305;46.410;17.394;2023-01-16T09:14:58;22.10;39.40
43561;DHT22;32305;46.410;17.394;2023-01-16T09:17:25;22.10;39.90
43561;DHT22;32305;46.410;17.394;2023-01-16T09:19:52;22.10;39.50
43561;DHT22;32305;46.410;17.394;2023-01-16T09:22:20;22.20;39.80
43561;DHT22;32305;46.410;17.394;2023-01-16T09:24:47;22.20;40.10
43561;DHT22;32305;46.410;17.394;2023-01-16T09:27:15;22.20;39.30
43561;DHT22;32305;46.410;17.394;2023-01-16T09:29:45;22.20;38.60
43561;DHT22;32305;46.410;17.394;2023-01-16T09:32:12;22.20;38.80
43561;DHT22;32305;46.410;17.394;2023-01-16T09:34:39;22.20;38.90
43561;DHT22;32305;46.410;17.394;2023-01-16T09:37:08;22.20;38.40
43561;DHT22;32305;46.410;17.394;2023-01-16T09:39:35;22.20;38.90
43561;DHT22;32305;46.410;17.394;2023-01-16T09:42:21;22.20;39.10
43561;DHT22;32305;46.410;17.394;2023-01-16T09:45:13;22.20;39.10
43561;DHT22;32305;46.410;17.394;2023-01-16T09:47:42;22.30;39.20
43561;DHT22;32305;46.410;17.394;2023-01-16T09:52:59;22.30;38.80
43561;DHT22;32305;46.410;17.394;2023-01-16T09:55:47;22.40;39.10
43561;DHT22;32305;46.410;17.394;2023-01-16T09:58:36;22.40;39.10
43561;DHT22;32305;46.410;17.394;2023-01-16T10:01:09;22.40;39.10
43561;DHT22;32305;46.410;17.394;2023-01-16T10:03:39;22.50;39.30
43561;DHT22;32305;46.410;17.394;2023-01-16T10:06:18;22.50;39.50
43561;DHT22;32305;46.410;17.394;2023-01-16T10:08:52;22.50;39.30
43561;DHT22;32305;46.410;17.394;2023-01-16T10:11:28;22.50;39.10
43561;DHT22;32305;46.410;17.394;2023-01-16T10:14:05;22.50;39.00
43561;DHT22;32305;46.410;17.394;2023-01-16T10:16:49;22.60;39.10
43561;DHT22;32305;46.410;17.394;2023-01-16T10:19:25;22.60;39.00
43561;DHT22;32305;46.410;17.394;2023-01-16T10:22:00;22.60;39.00
43561;DHT22;32305;46.410;17.394;2023-01-16T10:30:14;22.70;39.10
43561;DHT22;32305;46.410;17.394;2023-01-16T10:32:46;22.70;39.20
43561;DHT22;32305;46.410;17.394;2023-01-16T10:35:20;22.70;39.30
43561;DHT22;32305;46.410;17.394;2023-01-16T10:37:49;22.70;39.50
43561;DHT22;32305;46.410;17.394;2023-01-16T10:40:19;22.80;39.50
43561;DHT22;32305;46.410;17.394;2023-01-16T10:42:49;22.80;39.50
43561;DHT22;32305;46.410;17.394;2023-01-16T10:45:38;22.80;39.40
43561;DHT22;32305;46.410;17.394;2023-01-16T10:48:25;22.80;39.30
43561;DHT22;32305;46.410;17.394;2023-01-16T10:51:13;22.90;39.40
43561;DHT22;32305;46.410;17.394;2023-01-16T10:53:41;22.80;39.20
43561;DHT22;32305;46.410;17.394;2023-01-16T10:56:08;22.90;39.40
43561;DHT22;32305;46.410;17.394;2023-01-16T10:58:36;22.90;39.30
43561;DHT22;32305;46.410;17.394;2023-01-16T11:01:17;22.90;39.20
43561;DHT22;32305;46.410;17.394;2023-01-16T11:03:49;22.90;39.40
43561;DHT22;32305;46.410;17.394;2023-01-16T11:06:19;22.90;38.90
43561;DHT22;32305;46.410;17.394;2023-01-16T11:08:52;22.90;38.90
43561;DHT22;32305;46.410;17.394;2023-01-16T11:11:20;22.90;38.80
43561;DHT22;32305;46.410;17.394;2023-01-16T11:14:12;22.90;38.90
43561;DHT22;32305;46.410;17.394;2023-01-16T11:20:07;22.90;38.30
43561;DHT22;32305;46.410;17.394;2023-01-16T11:22:36;22.90;38.50
43561;DHT22;32305;46.410;17.394;2023-01-16T11:25:04;22.90;38.30
43561;DHT22;32305;46.410;17.394;2023-01-16T11:27:33;22.90;38.10
43561;DHT22;32305;46.410;17.394;2023-01-16T11:30:02;22.90;38.10
43561;DHT22;32305;46.410;17.394;2023-01-16T11:32:30;22.90;38.20
43561;DHT22;32305;46.410;17.394;2023-01-16T11:35:01;22.90;38.60
43561;DHT22;32305;46.410;17.394;2023-01-16T11:37:28;22.90;38.00
43561;DHT22;32305;46.410;17.394;2023-01-16T11:39:56;22.80;38.00
43561;DHT22;32305;46.410;17.394;2023-01-16T11:42:27;22.80;38.00
43561;DHT22;32305;46.410;17.394;2023-01-16T11:45:15;22.80;38.00
43561;DHT22;32305;46.410;17.394;2023-01-16T11:48:05;22.80;38.00
43561;DHT22;32305;46.410;17.394;2023-01-16T11:50:54;22.80;38.10
43561;DHT22;32305;46.410;17.394;2023-01-16T11:53:21;22.80;38.20
43561;DHT22;32305;46.410;17.394;2023-01-16T11:55:54;22.80;38.00
43561;DHT22;32305;46.410;17.394;2023-01-16T11:58:27;22.90;38.00
43561;DHT22;32305;46.410;17.394;2023-01-16T12:03:48;22.90;37.90
43561;DHT22;32305;46.410;17.394;2023-01-16T12:06:25;22.90;37.80
43561;DHT22;32305;46.410;17.394;2023-01-16T12:14:52;23.00;37.80
43561;DHT22;32305;46.410;17.394;2023-01-16T12:17:41;23.00;37.70
43561;DHT22;32305;46.410;17.394;2023-01-16T12:20:12;23.00;37.90
43561;DHT22;32305;46.410;17.394;2023-01-16T12:22:50;23.00;37.80
43561;DHT22;32305;46.410;17.394;2023-01-16T12:25:39;23.00;37.70
43561;DHT22;32305;46.410;17.394;2023-01-16T12:28:23;23.00;37.70
43561;DHT22;32305;46.410;17.394;2023-01-16T12:30:58;23.00;37.60
43561;DHT22;32305;46.410;17.394;2023-01-16T12:33:40;23.10;37.80
43561;DHT22;32305;46.410;17.394;2023-01-16T12:39:19;23.00;37.80
43561;DHT22;32305;46.410;17.394;2023-01-16T12:45:00;23.00;37.80
43561;DHT22;32305;46.410;17.394;2023-01-16T12:50:27;23.00;37.90
43561;DHT22;32305;46.410;17.394;2023-01-16T12:53:16;23.10;37.80
43561;DHT22;32305;46.410;17.394;2023-01-16T12:55:55;23.00;38.30
43561;DHT22;32305;46.410;17.394;2023-01-16T12:58:37;23.00;37.80
43561;DHT22;32305;46.410;17.394;2023-01-16T13:01:08;23.10;37.80
43561;DHT22;32305;46.410;17.394;2023-01-16T13:03:45;23.10;37.80
43561;DHT22;32305;46.410;17.394;2023-01-16T13:06:21;23.10;37.90
43561;DHT22;32305;46.410;17.394;2023-01-16T13:08:50;23.10;37.90
43561;DHT22;32305;46.410;17.394;2023-01-16T13:11:28;23.10;37.80
43561;DHT22;32305;46.410;17.394;2023-01-16T13:14:31;23.10;37.70
43561;DHT22;32305;46.410;17.394;2023-01-16T13:17:00;23.10;37.60
43561;DHT22;32305;46.410;17.394;2023-01-16T13:19:30;23.10;37.60
43561;DHT22;32305;46.410;17.394;2023-01-16T13:22:06;23.10;38.10
43561;DHT22;32305;46.410;17.394;2023-01-16T13:24:43;23.20;37.60
43561;DHT22;32305;46.410;17.394;2023-01-16T13:27:20;23.20;37.60
43561;DHT22;32305;46.410;17.394;2023-01-16T13:29:50;23.20;37.60
43561;DHT22;32305;46.410;17.394;2023-01-16T13:32:27;23.20;37.60
43561;DHT22;32305;46.410;17.394;2023-01-16T13:35:03;23.20;37.60
43561;DHT22;32305;46.410;17.394;2023-01-16T13:37:38;23.20;37.60
43561;DHT22;32305;46.410;17.394;2023-01-16T13:43:17;23.20;37.60
43561;DHT22;32305;46.410;17.394;2023-01-16T13:46:05;23.20;37.60
43561;DHT22;32305;46.410;17.394;2023-01-16T13:48:35;23.20;37.60
43561;DHT22;32305;46.410;17.394;2023-01-16T13:51:13;23.20;37.50
43561;DHT22;32305;46.410;17.394;2023-01-16T13:53:41;23.30;37.50
43561;DHT22;32305;46.410;17.394;2023-01-16T13:56:16;23.20;37.50
43561;DHT22;32305;46.410;17.394;2023-01-16T13:58:48;23.20;37.40
43561;DHT22;32305;46.410;17.394;2023-01-16T14:01:33;23.20;37.40
43561;DHT22;32305;46.410;17.394;2023-01-16T14:04:24;23.30;37.40
43561;DHT22;32305;46.410;17.394;2023-01-16T14:06:49;23.30;37.40
43561;DHT22;32305;46.410;17.394;2023-01-16T14:12:24;23.30;37.40
43561;DHT22;32305;46.410;17.394;2023-01-16T14:15:18;23.30;37.40
43561;DHT22;32305;46.410;17.394;2023-01-16T14:18:18;23.30;37.40
43561;DHT22;32305;46.410;17.394;2023-01-16T14:20:51;23.30;37.40
43561;DHT22;32305;46.410;17.394;2023-01-16T14:23:25;23.30;37.40
43561;DHT22;32305;46.410;17.394;2023-01-16T14:26:19;23.20;37.50
43561;DHT22;32305;46.410;17.394;2023-01-16T14:28:48;23.20;37.60
43561;DHT22;32305;46.410;17.394;2023-01-16T14:31:21;23.20;37.70
43561;DHT22;32305;46.410;17.394;2023-01-16T14:33:49;23.20;37.70
43561;DHT22;32305;46.410;17.394;2023-01-16T14:36:16;23.20;37.70
43561;DHT22;32305;46.410;17.394;2023-01-16T14:38:45;23.20;37.80
43561;DHT22;32305;46.410;17.394;2023-01-16T14:41:16;23.20;37.80
43561;DHT22;32305;46.410;17.394;2023-01-16T14:44:15;23.20;37.80
43561;DHT22;32305;46.410;17.394;2023-01-16T14:47:10;23.10;37.80
43561;DHT22;32305;46.410;17.394;2023-01-16T14:50:06;23.10;37.80
43561;DHT22;32305;46.410;17.394;2023-01-16T14:53:13;23.10;37.80
43561;DHT22;32305;46.410;17.394;2023-01-16T14:56:10;23.10;37.80
43561;DHT22;32305;46.410;17.394;2023-01-16T15:01:26;23.10;38.30
43561;DHT22;32305;46.410;17.394;2023-01-16T15:04:14;23.20;38.40
43561;DHT22;32305;46.410;17.394;2023-01-16T15:06:43;23.10;38.50
43561;DHT22;32305;46.410;17.394;2023-01-16T15:09:18;23.20;38.60
43561;DHT22;32305;46.410;17.394;2023-01-16T15:11:58;23.20;38.70
43561;DHT22;32305;46.410;17.394;2023-01-16T15:14:26;23.20;38.70
43561;DHT22;32305;46.410;17.394;2023-01-16T15:17:13;23.20;38.70
43561;DHT22;32305;46.410;17.394;2023-01-16T15:20:16;23.20;38.70
43561;DHT22;32305;46.410;17.394;2023-01-16T15:23:44;23.20;38.80
43561;DHT22;32305;46.410;17.394;2023-01-16T15:25:58;23.20;38.80
43561;DHT22;32305;46.410;17.394;2023-01-16T15:31:20;23.20;39.00
43561;DHT22;32305;46.410;17.394;2023-01-16T15:33:59;23.20;39.00
43561;DHT22;32305;46.410;17.394;2023-01-16T15:36:31;23.20;39.10
43561;DHT22;32305;46.410;17.394;2023-01-16T15:38:59;23.20;39.20
43561;DHT22;32305;46.410;17.394;2023-01-16T15:41:27;23.10;39.10
43561;DHT22;32305;46.410;17.394;2023-01-16T15:44:17;23.10;39.10
43561;DHT22;32305;46.410;17.394;2023-01-16T15:47:12;23.10;39.10
43561;DHT22;32305;46.410;17.394;2023-01-16T15:52:28;23.00;39.20
43561;DHT22;32305;46.410;17.394;2023-01-16T15:54:56;22.90;39.30
43561;DHT22;32305;46.410;17.394;2023-01-16T15:57:24;22.90;39.40
43561;DHT22;32305;46.410;17.394;2023-01-16T15:59:52;22.90;39.50
43561;DHT22;32305;46.410;17.394;2023-01-16T16:02:24;22.80;39.50
43561;DHT22;32305;46.410;17.394;2023-01-16T16:04:53;22.80;39.60
43561;DHT22;32305;46.410;17.394;2023-01-16T16:07:20;22.70;39.80
43561;DHT22;32305;46.410;17.394;2023-01-16T16:09:49;22.70;40.00
43561;DHT22;32305;46.410;17.394;2023-01-16T16:12:18;22.70;40.30
43561;DHT22;32305;46.410;17.394;2023-01-16T16:14:46;22.70;40.50
43561;DHT22;32305;46.410;17.394;2023-01-16T16:17:34;22.60;40.70
43561;DHT22;32305;46.410;17.394;2023-01-16T16:20:35;22.50;40.90
43561;DHT22;32305;46.410;17.394;2023-01-16T16:23:15;22.50;41.20
43561;DHT22;32305;46.410;17.394;2023-01-16T16:25:47;22.50;41.60
43561;DHT22;32305;46.410;17.394;2023-01-16T16:28:24;22.50;41.70
43561;DHT22;32305;46.410;17.394;2023-01-16T16:31:00;22.40;41.90
43561;DHT22;32305;46.410;17.394;2023-01-16T16:33:27;22.40;42.00
43561;DHT22;32305;46.410;17.394;2023-01-16T16:35:58;22.40;42.10
43561;DHT22;32305;46.410;17.394;2023-01-16T16:38:41;22.40;42.30
43561;DHT22;32305;46.410;17.394;2023-01-16T16:41:41;22.30;42.30
43561;DHT22;32305;46.410;17.394;2023-01-16T16:44:20;22.30;42.30
43561;DHT22;32305;46.410;17.394;2023-01-16T16:46:50;22.30;42.30
43561;DHT22;32305;46.410;17.394;2023-01-16T16:49:26;22.20;42.30
43561;DHT22;32305;46.410;17.394;2023-01-16T16:51:53;22.20;42.20
43561;DHT22;32305;46.410;17.394;2023-01-16T16:54:25;22.20;42.20
43561;DHT22;32305;46.410;17.394;2023-01-16T16:56:52;22.20;42.10